createdAt,value
2018-08-19T08:12:22.106Z,21.15
2018-08-19T08:21:52.017Z,21.93
2018-08-19T08:22:51.071Z,21.96
2018-08-19T08:23:50.802Z,21.98
2018-08-19T08:24:50.750Z,22.02
2018-08-19T08:28:27.686Z,21.98
2018-08-19T08:29:27.811Z,21.83
2018-08-19T08:30:27.518Z,21.89
2018-08-19T08:31:27.497Z,21.94
2018-08-19T08:32:28.324Z,22.05
2018-08-19T08:33:27.451Z,22.12
2018-08-19T08:34:27.520Z,22.08
2018-08-19T08:35:27.383Z,22.12
2018-08-19T08:36:27.491Z,22.12
2018-08-19T08:37:27.637Z,22.15
2018-08-19T08:38:27.436Z,22.23
2018-08-19T08:39:27.397Z,22.42
2018-08-19T08:42:03.646Z,22.88
2018-08-19T08:43:04.372Z,22.81
2018-08-19T08:49:06.792Z,23.00
2018-08-19T08:50:06.499Z,23.07
2018-08-19T08:51:06.445Z,23.14
2018-08-19T08:52:06.359Z,23.12
2018-08-19T08:53:08.196Z,22.96
2018-08-19T08:57:03.274Z,23.21
2018-08-19T08:58:02.657Z,23.35
2018-08-19T09:13:48.326Z,23.49
2018-08-19T09:14:48.388Z,23.53
2018-08-19T09:15:48.595Z,23.54
2018-08-19T09:16:47.941Z,23.68
2018-08-19T09:17:48.871Z,23.59
2018-08-19T09:18:47.678Z,23.71
2018-08-19T09:19:48.589Z,23.78
2018-08-19T09:20:48.690Z,23.82
2018-08-19T09:36:44.639Z,23.75
2018-08-19T09:37:44.392Z,23.79
2018-08-19T09:38:44.481Z,23.97
2018-08-19T09:39:44.311Z,23.97
2018-08-19T09:40:44.221Z,24.04
2018-08-19T09:41:44.178Z,23.96
2018-08-19T09:42:44.787Z,24.08
2018-08-19T09:43:44.152Z,24.15
2018-08-19T09:44:44.148Z,24.06
2018-08-19T09:45:44.340Z,23.96
2018-08-19T09:46:44.280Z,24.05
2018-08-19T09:47:44.564Z,23.99
2018-08-19T09:48:44.979Z,24.06
2018-08-19T09:49:44.124Z,24.18
2018-08-19T09:50:44.090Z,24.29
2018-08-19T09:51:44.074Z,24.36
2018-08-19T09:52:44.157Z,24.29
2018-08-19T09:53:44.050Z,24.30
2018-08-19T09:54:44.064Z,24.27
2018-08-19T09:55:44.074Z,24.36
2018-08-19T09:56:44.023Z,24.51
2018-08-19T09:57:44.095Z,24.63
2018-08-19T09:58:44.029Z,24.67
2018-08-19T09:59:43.995Z,24.61
2018-08-19T10:00:44.055Z,24.67
2018-08-19T10:01:44.086Z,24.63
2018-08-19T10:02:44.027Z,24.64
2018-08-19T10:03:44.009Z,24.77
2018-08-19T10:04:44.499Z,24.49
2018-08-19T10:05:43.982Z,24.41
2018-08-19T10:06:43.982Z,24.55
2018-08-19T10:07:48.583Z,24.46
2018-08-19T10:08:44.016Z,24.34
2018-08-19T10:09:43.976Z,24.16
2018-08-19T10:10:44.475Z,24.04
2018-08-19T10:11:43.899Z,24.12
2018-08-19T10:12:43.871Z,24.18
2018-08-19T10:13:43.993Z,24.12
2018-08-19T10:14:44.541Z,24.14
2018-08-19T10:21:30.213Z,24.34
2018-08-19T10:22:30.132Z,24.39
2018-08-19T10:23:30.272Z,24.51
2018-08-19T10:24:29.988Z,24.66
2018-08-19T10:25:30.210Z,24.67
2018-08-19T10:26:29.943Z,24.39
2018-08-19T10:27:29.922Z,24.29
2018-08-19T10:28:30.039Z,24.26
2018-08-19T10:29:30.358Z,24.18
2018-08-19T10:30:30.034Z,24.18
2018-08-19T10:31:30.067Z,24.33
2018-08-19T10:32:37.922Z,24.36
2018-08-19T10:33:29.971Z,24.60
2018-08-19T10:34:29.870Z,24.75
2018-08-19T10:35:29.899Z,24.93
2018-08-19T10:36:29.905Z,24.98
2018-08-19T10:39:37.860Z,25.34
2018-08-19T10:40:37.017Z,25.45
2018-08-19T10:41:37.186Z,25.61
2018-08-19T10:42:47.546Z,25.49
2018-08-19T10:43:36.670Z,25.53
2018-08-19T10:44:36.760Z,25.45
2018-08-19T10:45:36.650Z,25.53
2018-08-19T10:46:36.670Z,25.67
2018-08-19T10:47:36.733Z,25.69
2018-08-19T10:48:36.614Z,25.76
2018-08-19T10:49:36.768Z,25.66
2018-08-19T10:50:36.598Z,25.81
2018-08-19T10:51:36.831Z,26.00
2018-08-19T10:52:36.575Z,26.12
2018-08-19T10:53:36.595Z,26.13
2018-08-19T10:54:36.569Z,26.17
2018-08-19T10:55:36.584Z,26.36
2018-08-19T10:56:36.540Z,26.49
2018-08-19T10:57:36.524Z,26.66
2018-08-19T10:58:36.519Z,26.29
2018-08-19T10:59:36.537Z,26.19
2018-08-19T11:00:36.508Z,26.13
2018-08-19T11:01:36.660Z,26.21
2018-08-19T11:02:36.487Z,26.28
2018-08-19T11:03:36.481Z,26.38
2018-08-19T11:04:36.479Z,26.31
2018-08-19T11:05:36.459Z,26.21
2018-08-19T11:06:36.471Z,26.13
2018-08-19T11:07:36.437Z,25.94
2018-08-19T11:08:36.434Z,25.97
2018-08-19T11:09:36.449Z,26.09
2018-08-19T11:10:36.414Z,26.23
2018-08-19T11:11:36.398Z,26.28
2018-08-19T11:12:36.425Z,26.00
2018-08-19T11:13:36.389Z,26.00
2018-08-19T11:14:36.374Z,25.98
2018-08-19T11:15:36.366Z,26.19
2018-08-19T11:16:36.360Z,26.19
2018-08-19T11:17:36.371Z,26.28
2018-08-19T11:18:36.340Z,26.44
2018-08-19T11:19:36.336Z,26.60
2018-08-19T11:20:36.394Z,26.68
2018-08-19T11:21:36.358Z,26.76
2018-08-19T11:22:36.348Z,26.96
2018-08-19T11:23:36.287Z,26.75
2018-08-19T11:24:36.320Z,26.54
2018-08-19T11:25:36.298Z,26.44
2018-08-19T11:26:36.282Z,26.41
2018-08-19T11:27:36.320Z,26.24
2018-08-19T11:28:36.324Z,26.34
2018-08-19T11:29:36.235Z,26.53
2018-08-19T11:30:36.221Z,26.61
2018-08-19T11:31:36.334Z,26.68
2018-08-19T11:32:36.214Z,26.56
2018-08-19T11:33:36.204Z,26.61
2018-08-19T11:34:36.195Z,26.81
2018-08-19T11:35:36.177Z,26.72
2018-08-19T11:36:36.164Z,26.61
2018-08-19T11:37:36.188Z,26.94
2018-08-19T11:38:36.227Z,26.91
2018-08-19T11:39:36.153Z,26.94
2018-08-19T11:40:36.151Z,26.72
2018-08-19T11:41:36.130Z,26.79
2018-08-19T11:42:36.149Z,26.96
2018-08-19T11:43:36.121Z,26.93
2018-08-19T11:44:36.452Z,26.96
2018-08-19T11:45:36.082Z,26.79
2018-08-19T11:46:36.148Z,26.78
2018-08-19T11:47:36.131Z,26.84
2018-08-19T11:48:36.383Z,26.69
2018-08-19T11:49:36.162Z,26.47
2018-08-19T11:50:36.210Z,26.50
2018-08-19T11:51:36.112Z,26.42
2018-08-19T11:52:36.050Z,26.69
2018-08-19T11:53:36.061Z,26.87
2018-08-19T11:54:36.009Z,27.08
2018-08-19T11:55:36.549Z,27.23
2018-08-19T11:56:35.996Z,27.63
2018-08-19T11:57:36.014Z,27.65
2018-08-19T11:58:36.003Z,27.78
2018-08-19T11:59:36.004Z,27.87
2018-08-19T12:00:36.014Z,27.93
2018-08-19T12:01:36.047Z,27.90
2018-08-19T12:02:35.991Z,27.86
2018-08-19T12:03:36.396Z,27.74
2018-08-19T12:04:35.941Z,27.77
2018-08-19T12:05:35.922Z,28.02
2018-08-19T12:06:35.934Z,28.05
2018-08-19T12:07:35.898Z,28.21
2018-08-19T12:08:35.894Z,28.28
2018-08-19T12:09:36.049Z,27.83
2018-08-19T12:10:35.891Z,27.66
2018-08-19T12:11:35.959Z,27.38
2018-08-19T12:12:35.858Z,27.38
2018-08-19T12:13:36.372Z,27.48
2018-08-19T12:14:35.879Z,27.39
2018-08-19T12:15:35.859Z,27.43
2018-08-19T12:16:35.868Z,27.49
2018-08-19T12:17:35.894Z,27.46
2018-08-19T12:18:35.937Z,27.40
2018-08-19T12:19:35.894Z,27.48
2018-08-19T12:20:35.797Z,27.35
2018-08-19T12:21:35.780Z,27.52
2018-08-19T12:22:35.804Z,27.65
2018-08-19T12:23:35.938Z,27.63
2018-08-19T12:24:35.744Z,27.43
2018-08-19T12:25:35.746Z,27.49
2018-08-19T12:26:35.952Z,27.80
2018-08-19T12:27:35.791Z,27.99
2018-08-19T12:28:35.715Z,28.23
2018-08-19T12:29:35.696Z,28.13
2018-08-19T12:30:35.700Z,28.09
2018-08-19T12:31:35.722Z,28.13
2018-08-19T12:32:35.660Z,28.23
2018-08-19T12:33:35.648Z,27.93
2018-08-19T12:34:35.654Z,28.08
2018-08-19T12:35:35.633Z,28.23
2018-08-19T12:36:35.650Z,28.35
2018-08-19T12:37:35.699Z,28.27
2018-08-19T12:38:35.655Z,28.45
2018-08-19T12:39:35.608Z,28.69
2018-08-19T12:40:35.651Z,28.67
2018-08-19T12:41:35.590Z,28.48
2018-08-19T12:42:35.568Z,28.38
2018-08-19T12:43:35.650Z,28.38
2018-08-19T12:44:35.553Z,28.14
2018-08-19T12:45:35.539Z,27.90
2018-08-19T12:46:35.563Z,27.66
2018-08-19T12:47:35.519Z,27.71
2018-08-19T12:48:35.511Z,27.62
2018-08-19T12:49:35.778Z,27.55
2018-08-19T12:50:35.487Z,27.55
2018-08-19T12:51:35.491Z,27.34
2018-08-19T12:52:35.500Z,27.35
2018-08-19T12:53:35.461Z,27.31
2018-08-19T12:54:35.461Z,27.30
2018-08-19T12:55:35.545Z,27.18
2018-08-19T12:56:35.472Z,27.11
2018-08-19T12:57:35.437Z,27.24
2018-08-19T12:58:35.431Z,27.39
2018-08-19T12:59:35.420Z,27.38
2018-08-19T13:00:35.404Z,27.46
2018-08-19T13:01:35.433Z,27.38
2018-08-19T13:02:35.623Z,27.42
2018-08-19T13:03:35.381Z,27.48
2018-08-19T13:04:35.380Z,27.59
2018-08-19T13:05:35.353Z,27.59
2018-08-19T13:06:35.398Z,27.69
2018-08-19T13:07:35.451Z,27.86
2018-08-19T13:08:35.337Z,28.01
2018-08-19T13:09:35.322Z,28.05
2018-08-19T13:10:38.068Z,27.98
2018-08-19T13:11:35.298Z,28.03
2018-08-19T13:12:35.386Z,28.06
2018-08-19T13:13:35.279Z,28.24
2018-08-19T13:14:35.280Z,28.33
2018-08-19T13:15:35.532Z,28.27
2018-08-19T13:16:35.324Z,28.15
2018-08-19T13:17:35.274Z,28.20
2018-08-19T13:18:35.281Z,28.35
2018-08-19T13:19:35.312Z,28.50
2018-08-19T13:20:35.308Z,28.58
2018-08-19T13:21:35.224Z,28.73
2018-08-19T13:22:35.189Z,28.76
2018-08-19T13:23:35.206Z,28.89
2018-08-19T13:24:35.247Z,29.05
2018-08-19T13:25:35.176Z,28.85
2018-08-19T13:26:35.316Z,28.70
2018-08-19T13:27:35.176Z,28.76
2018-08-19T13:28:35.216Z,28.79
2018-08-19T13:29:35.128Z,28.82
2018-08-19T13:30:35.114Z,28.57
2018-08-19T13:31:35.260Z,28.54
2018-08-19T13:32:35.159Z,28.51
2018-08-19T13:33:35.119Z,28.69
2018-08-19T13:34:35.134Z,29.02
2018-08-19T13:35:35.073Z,29.12
2018-08-19T13:36:35.058Z,29.07
2018-08-19T13:37:35.114Z,29.05
2018-08-19T13:38:35.265Z,29.25
2018-08-19T13:39:35.606Z,29.57
2018-08-19T13:40:35.220Z,29.79
2018-08-19T13:41:35.178Z,29.99
2018-08-19T13:42:35.051Z,29.88
2018-08-19T13:43:35.077Z,29.74
2018-08-19T13:49:02.613Z,29.00
2018-08-19T13:50:02.264Z,29.03
2018-08-19T13:51:05.316Z,28.89
2018-08-19T13:52:04.977Z,28.92
2018-08-19T14:01:52.082Z,28.85
2018-08-19T14:02:52.237Z,28.67
2018-08-19T14:03:52.325Z,28.52
2018-08-19T14:09:53.912Z,28.62
2018-08-19T14:10:53.861Z,28.46
2018-08-19T14:16:41.518Z,28.27
2018-08-19T14:37:29.550Z,27.68
2018-08-19T14:38:28.899Z,27.76
2018-08-19T14:39:28.913Z,27.86
2018-08-19T14:40:29.315Z,27.87
2018-08-19T14:41:28.904Z,27.86
2018-08-19T14:42:28.751Z,27.93
2018-08-19T14:43:28.858Z,28.02
2018-08-19T14:44:28.719Z,28.13
2018-08-19T14:45:29.601Z,28.20
2018-08-19T14:46:28.796Z,27.98
2018-08-19T14:47:28.688Z,28.01
2018-08-19T14:48:28.690Z,28.23
2018-08-19T14:49:28.703Z,28.13
2018-08-19T14:50:28.650Z,28.09
2018-08-19T14:51:28.680Z,27.95
2018-08-19T14:52:28.632Z,27.81
2018-08-19T14:53:28.932Z,27.65
2018-08-19T14:54:28.599Z,27.81
2018-08-19T14:55:28.677Z,27.77
2018-08-19T14:56:28.917Z,27.90
2018-08-19T14:57:28.575Z,27.91
2018-08-19T14:58:29.454Z,28.03
2018-08-19T14:59:29.481Z,28.06
2018-08-19T15:00:35.996Z,28.05
2018-08-19T15:01:29.434Z,28.11
2018-08-19T15:09:18.924Z,27.63
2018-08-19T15:10:18.351Z,27.65
2018-08-19T15:11:18.482Z,27.77
2018-08-19T15:12:18.488Z,27.78
2018-08-19T15:18:42.161Z,27.55
2018-08-19T15:19:41.693Z,27.53
2018-08-19T15:20:41.549Z,27.50
2018-08-19T15:21:41.361Z,27.40
2018-08-19T15:22:41.321Z,27.53
2018-08-19T15:23:41.366Z,27.46
2018-08-19T15:24:41.300Z,27.48
2018-08-19T15:25:41.276Z,27.33
2018-08-19T15:26:41.314Z,27.33
2018-08-19T15:27:41.265Z,27.27
2018-08-19T15:28:41.270Z,27.24
2018-08-19T15:29:41.271Z,27.21
2018-08-19T15:30:41.235Z,27.28
2018-08-19T15:31:41.292Z,27.27
2018-08-19T15:32:42.184Z,27.25
2018-08-19T15:33:41.225Z,27.34
2018-08-19T15:34:41.190Z,27.35
2018-08-19T15:35:42.166Z,27.28
2018-08-19T15:36:41.331Z,27.16
2018-08-19T15:37:41.357Z,26.97
2018-08-19T15:38:41.153Z,27.03
2018-08-19T15:39:41.154Z,27.03
2018-08-19T15:46:04.995Z,27.30
2018-08-19T15:48:08.008Z,27.35
2018-08-19T15:49:07.870Z,27.31
2018-08-19T15:50:07.368Z,27.34
2018-08-19T15:51:08.371Z,27.33
2018-08-19T15:52:07.275Z,27.50
2018-08-19T15:53:07.411Z,27.48
2018-08-19T15:54:07.237Z,27.66
2018-08-19T15:55:07.271Z,27.69
2018-08-19T15:56:07.406Z,27.69
2018-08-19T15:57:07.184Z,27.65
2018-08-19T15:58:07.273Z,27.63
2018-08-19T15:59:07.174Z,27.69
2018-08-19T16:00:07.399Z,27.55
2018-08-19T16:01:07.237Z,27.34
2018-08-19T16:02:07.180Z,27.43
2018-08-19T16:03:07.155Z,27.55
2018-08-19T16:04:07.291Z,27.53
2018-08-19T16:05:07.317Z,27.52
2018-08-19T16:06:07.722Z,27.43
2018-08-19T16:07:07.075Z,27.43
2018-08-19T16:08:07.118Z,27.40
2018-08-19T16:09:07.050Z,27.43
2018-08-19T16:10:07.082Z,27.49
2018-08-19T16:11:07.117Z,27.31
2018-08-19T16:12:07.170Z,27.15
2018-08-19T16:13:11.711Z,27.03
2018-08-19T16:14:07.054Z,27.05
2018-08-19T16:15:08.822Z,27.09
2018-08-19T16:16:08.999Z,27.01
2018-08-19T16:17:08.127Z,27.11
2018-08-19T16:18:07.225Z,27.30
2018-08-19T16:19:07.253Z,27.24
2018-08-19T16:20:07.171Z,27.28
2018-08-19T16:21:08.031Z,27.18
2018-08-19T16:22:06.909Z,27.15
2018-08-19T16:23:06.920Z,26.98
2018-08-19T16:24:06.967Z,27.05
2018-08-19T16:25:06.872Z,27.11
2018-08-19T16:26:07.214Z,27.01
2018-08-19T16:27:06.867Z,26.96
2018-08-19T16:28:06.861Z,26.93
2018-08-19T16:29:06.831Z,26.96
2018-08-19T16:30:06.846Z,27.02
2018-08-19T16:31:06.817Z,27.08
2018-08-19T16:32:06.850Z,27.11
2018-08-19T16:33:06.949Z,27.09
2018-08-19T16:34:06.831Z,27.01
2018-08-19T16:35:07.032Z,27.02
2018-08-19T16:36:07.711Z,26.94
2018-08-19T16:37:06.811Z,26.91
2018-08-19T16:38:06.739Z,26.91
2018-08-19T16:39:06.735Z,26.84
2018-08-19T16:40:06.715Z,26.81
2018-08-19T16:41:06.709Z,26.69
2018-08-19T16:42:06.943Z,26.71
2018-08-19T16:43:06.872Z,26.68
2018-08-19T16:44:07.007Z,26.66
2018-08-19T16:45:07.245Z,26.64
2018-08-19T16:46:07.425Z,26.61
2018-08-19T16:47:06.685Z,26.51
2018-08-19T16:48:11.900Z,26.56
2018-08-19T16:49:06.664Z,26.46
2018-08-19T16:50:06.704Z,26.49
2018-08-19T16:51:06.716Z,26.50
2018-08-19T16:54:37.163Z,26.46
2018-08-19T16:55:36.813Z,26.42
2018-08-19T16:56:36.674Z,26.34
2018-08-19T16:57:36.605Z,26.35
2018-08-19T16:58:36.610Z,26.35
2018-08-19T16:59:36.635Z,26.36
2018-08-19T17:00:36.590Z,26.36
2018-08-19T17:01:36.722Z,26.39
2018-08-19T17:02:36.685Z,26.36
2018-08-19T17:03:36.581Z,26.32
2018-08-19T17:04:36.553Z,26.23
2018-08-19T17:05:36.556Z,26.12
2018-08-19T17:06:36.546Z,26.16
2018-08-19T17:07:36.502Z,26.16
2018-08-19T17:08:36.800Z,26.19
2018-08-19T17:09:36.496Z,26.09
2018-08-19T17:10:36.524Z,25.96
2018-08-19T17:11:36.580Z,26.03
2018-08-19T17:12:37.599Z,25.94
2018-08-19T17:16:19.582Z,25.83
2018-08-19T17:17:19.093Z,25.82
2018-08-19T17:18:19.122Z,25.86
2018-08-19T17:20:31.365Z,25.75
2018-08-19T17:21:31.004Z,25.67
2018-08-19T17:22:30.938Z,25.74
2018-08-19T17:23:30.823Z,25.66
2018-08-19T17:24:30.796Z,25.71
2018-08-19T17:25:30.813Z,25.75
2018-08-19T17:26:30.946Z,25.69
2018-08-19T17:27:30.742Z,25.75
2018-08-19T17:28:30.747Z,25.69
2018-08-19T17:29:30.737Z,25.72
2018-08-19T17:30:30.713Z,25.66
2018-08-19T17:31:30.718Z,25.67
2018-08-19T17:32:30.803Z,25.72
2018-08-19T17:33:30.725Z,25.57
2018-08-19T17:34:30.666Z,25.67
2018-08-19T17:35:30.671Z,25.63
2018-08-19T17:36:30.671Z,25.66
2018-08-19T17:37:30.640Z,25.63
2018-08-19T17:38:30.634Z,25.49
2018-08-19T17:39:30.764Z,25.60
2018-08-19T17:40:30.664Z,25.51
2018-08-19T17:41:30.652Z,25.54
2018-08-19T17:42:31.073Z,25.51
2018-08-19T17:43:30.752Z,25.41
2018-08-19T17:44:30.566Z,25.44
2018-08-19T17:45:30.613Z,25.31
2018-08-19T17:46:30.551Z,25.36
2018-08-19T17:47:30.663Z,25.27
2018-08-19T17:48:30.532Z,25.31
2018-08-19T17:49:31.667Z,25.26
2018-08-19T17:50:30.770Z,25.27
2018-08-19T17:51:44.608Z,25.17
2018-08-19T17:58:16.114Z,25.11
2018-08-19T17:59:16.054Z,25.04
2018-08-19T18:00:16.012Z,25.02
2018-08-19T18:01:15.907Z,25.04
2018-08-19T18:02:15.886Z,25.11
2018-08-19T18:03:15.955Z,25.02
2018-08-19T18:04:15.950Z,25.05
2018-08-19T18:05:15.846Z,24.90
2018-08-19T18:06:15.869Z,24.98
2018-08-19T18:07:15.836Z,24.89
2018-08-19T18:08:15.816Z,24.94
2018-08-19T18:09:16.007Z,24.97
2018-08-19T18:10:16.594Z,24.93
2018-08-19T18:11:15.787Z,24.80
2018-08-19T18:13:19.994Z,24.82
2018-08-19T18:14:19.328Z,24.82
2018-08-19T18:15:18.970Z,24.77
2018-08-19T18:16:18.660Z,24.79
2018-08-19T18:17:18.816Z,24.77
2018-08-19T18:18:18.499Z,24.79
2018-08-19T18:19:18.596Z,24.61
2018-08-19T18:20:18.481Z,24.67
2018-08-19T18:21:18.482Z,24.71
2018-08-19T18:22:18.509Z,24.67
2018-08-19T18:23:18.521Z,24.61
2018-08-19T18:24:18.500Z,24.60
2018-08-19T18:25:18.493Z,24.64
2018-08-19T18:26:18.474Z,24.61
2018-08-19T18:27:18.405Z,24.64
2018-08-19T18:28:18.394Z,24.46
2018-08-19T18:29:18.422Z,24.48
2018-08-19T18:30:18.373Z,24.48
2018-08-19T18:31:18.427Z,24.51
2018-08-19T18:32:18.433Z,24.45
2018-08-19T18:33:18.352Z,24.36
2018-08-19T18:34:18.473Z,24.36
2018-08-19T18:35:18.354Z,24.37
2018-08-19T18:36:18.398Z,24.33
2018-08-19T18:37:18.297Z,24.33
2018-08-19T18:38:18.364Z,24.27
2018-08-19T18:39:18.358Z,24.21
2018-08-19T18:40:18.800Z,24.24
2018-08-19T18:41:18.308Z,24.21
2018-08-19T18:42:18.275Z,24.11
2018-08-19T18:43:18.470Z,24.15
2018-08-19T18:44:18.353Z,24.08
2018-08-19T18:45:18.206Z,24.09
2018-08-19T18:46:18.230Z,24.06
2018-08-19T18:47:18.186Z,24.00
2018-08-19T18:48:18.194Z,24.04
2018-08-19T18:49:18.175Z,23.96
2018-08-19T18:50:18.155Z,23.93
2018-08-19T18:51:18.152Z,23.97
2018-08-19T18:52:18.492Z,23.87
2018-08-19T18:53:18.165Z,23.86
2018-08-19T18:54:18.508Z,23.79
2018-08-19T18:55:18.130Z,23.78
2018-08-19T18:56:18.223Z,23.79
2018-08-19T18:57:18.097Z,23.79
2018-08-19T18:58:18.072Z,23.78
2018-08-19T18:59:18.063Z,23.78
2018-08-19T19:00:18.117Z,23.63
2018-08-19T19:01:18.045Z,23.67
2018-08-19T19:02:18.118Z,23.63
2018-08-19T19:11:16.618Z,23.39
2018-08-19T19:12:16.215Z,23.32
2018-08-19T19:13:16.098Z,23.38
2018-08-19T19:14:16.508Z,23.35
2018-08-19T19:15:16.062Z,23.26
2018-08-19T19:16:15.958Z,23.22
2018-08-19T19:17:15.900Z,23.32
2018-08-19T19:18:15.917Z,23.11
2018-08-19T19:19:15.939Z,23.12
2018-08-19T19:20:16.151Z,23.03
2018-08-19T19:21:17.017Z,23.04
2018-08-19T19:22:15.942Z,23.11
2018-08-19T19:23:16.012Z,22.91
2018-08-19T19:24:16.513Z,22.99
2018-08-19T19:25:15.907Z,22.99
2018-08-19T19:26:15.872Z,22.86
2018-08-19T19:27:15.792Z,22.91
2018-08-19T19:28:15.781Z,22.84
2018-08-19T19:29:15.768Z,22.88
2018-08-19T19:30:15.842Z,22.78
2018-08-19T19:31:15.783Z,22.75
2018-08-19T19:32:15.735Z,22.82
2018-08-19T19:33:15.792Z,22.70
2018-08-19T19:34:15.768Z,22.75
2018-08-19T19:35:15.795Z,22.72
2018-08-19T19:36:16.025Z,22.78
2018-08-19T19:37:15.696Z,22.69
2018-08-19T19:38:15.715Z,22.72
2018-08-19T19:39:16.417Z,22.64
2018-08-19T19:40:15.673Z,22.63
2018-08-19T19:41:15.677Z,22.59
2018-08-19T19:42:15.654Z,22.52
2018-08-19T19:43:15.620Z,22.54
2018-08-19T19:44:15.613Z,22.52
2018-08-19T19:45:15.751Z,22.46
2018-08-19T19:46:15.625Z,22.49
2018-08-19T19:47:15.638Z,22.45
2018-08-19T19:48:15.573Z,22.39
2018-08-19T19:49:15.547Z,22.39
2018-08-19T19:50:28.546Z,22.33
2018-08-19T19:51:15.663Z,22.27
2018-08-19T19:52:15.778Z,22.29
2018-08-19T19:53:15.579Z,22.30
2018-08-19T19:54:18.378Z,22.26
2018-08-19T19:55:15.603Z,22.30
2018-08-19T19:57:40.478Z,22.29
2018-08-19T19:58:40.598Z,22.14
2018-08-19T19:59:40.432Z,22.12
2018-08-19T20:00:40.350Z,22.21
2018-08-19T20:01:40.269Z,22.12
2018-08-19T20:02:40.307Z,22.04
2018-08-19T20:03:40.274Z,22.08
2018-08-19T20:04:42.235Z,21.98
2018-08-19T20:05:41.248Z,21.99
2018-08-19T20:09:40.759Z,21.91
2018-08-19T20:10:40.436Z,21.91
2018-08-19T20:11:40.891Z,21.89
2018-08-19T20:21:46.684Z,21.66
2018-08-19T20:22:46.677Z,21.66
2018-08-19T20:23:50.775Z,21.64
2018-08-19T20:24:46.158Z,21.55
2018-08-19T20:25:46.594Z,21.56
2018-08-19T20:26:54.051Z,21.51
2018-08-19T20:27:46.168Z,21.58
2018-08-19T20:34:26.573Z,21.40
2018-08-19T20:35:26.212Z,21.37
2018-08-19T20:36:26.106Z,21.42
2018-08-19T20:37:27.442Z,21.31
2018-08-19T20:38:35.679Z,21.28
2018-08-19T20:39:26.292Z,21.27
2018-08-19T20:40:26.336Z,21.21
2018-08-19T20:41:26.085Z,21.28
2018-08-19T20:42:26.072Z,21.31
2018-08-19T20:43:26.026Z,21.19
2018-08-19T20:44:25.962Z,21.12
2018-08-19T20:45:26.003Z,21.21
2018-08-19T20:46:26.052Z,21.12
2018-08-19T20:47:26.022Z,21.12
2018-08-19T20:48:25.942Z,21.08
2018-08-19T20:49:25.970Z,21.03
2018-08-19T20:50:25.996Z,21.09
2018-08-19T20:51:25.926Z,21.00
2018-08-19T20:52:26.004Z,21.00
2018-08-19T20:53:25.885Z,21.00
2018-08-19T20:54:25.845Z,20.93
2018-08-19T20:55:25.902Z,20.88
2018-08-19T20:56:25.918Z,20.96
2018-08-19T20:57:25.838Z,20.96
2018-08-19T20:58:25.849Z,20.87
2018-08-19T20:59:25.814Z,20.83
2018-08-19T21:00:25.847Z,20.90
2018-08-19T21:01:25.853Z,20.81
2018-08-19T21:02:25.768Z,20.78
2018-08-19T21:03:25.805Z,20.76
2018-08-19T21:04:25.796Z,20.75
2018-08-19T21:05:25.752Z,20.66
2018-08-19T21:06:25.770Z,20.66
2018-08-19T21:07:25.877Z,20.68
2018-08-19T21:08:25.826Z,20.61
2018-08-19T21:09:25.782Z,20.68
2018-08-19T21:10:25.843Z,20.56
2018-08-19T21:11:25.760Z,20.56
2018-08-19T21:12:25.905Z,20.54
2018-08-19T21:16:49.571Z,20.53
2018-08-19T21:17:49.576Z,20.53
2018-08-19T21:18:49.601Z,20.44
2018-08-19T21:19:49.437Z,20.35
2018-08-19T21:20:49.432Z,20.51
2018-08-19T21:21:49.571Z,20.41
2018-08-19T21:22:49.364Z,20.40
2018-08-19T21:23:49.308Z,20.33
2018-08-19T21:24:49.329Z,20.34
2018-08-19T21:25:49.315Z,20.35
2018-08-19T21:26:49.289Z,20.35
2018-08-19T21:27:49.234Z,20.31
2018-08-19T21:55:59.007Z,20.16
2018-08-19T21:56:58.084Z,20.22
2018-08-19T21:57:58.180Z,20.22
2018-08-19T21:58:58.146Z,20.25
2018-08-19T21:59:57.925Z,20.35
2018-08-19T22:00:58.818Z,20.38
2018-08-19T22:01:58.531Z,20.34
2018-08-19T22:02:57.960Z,20.35
2018-08-19T22:03:57.898Z,20.41
2018-08-19T22:04:57.923Z,20.26
2018-08-19T22:05:58.042Z,20.30
2018-08-19T22:06:57.999Z,20.41
2018-08-19T22:07:58.360Z,20.42
2018-08-19T22:08:59.485Z,20.40
2018-08-19T22:09:57.844Z,20.40
2018-08-19T22:10:57.891Z,20.35
2018-08-19T22:11:57.830Z,20.38
2018-08-19T22:12:57.844Z,20.48
2018-08-19T22:13:57.770Z,20.48
2018-08-19T22:14:57.781Z,20.46
2018-08-19T22:15:57.794Z,20.44
2018-08-19T22:17:04.504Z,20.50
2018-08-19T22:17:57.777Z,20.48
2018-08-19T22:18:57.776Z,20.54
2018-08-19T22:19:58.516Z,20.51
2018-08-19T22:20:59.505Z,20.51
2018-08-19T22:21:59.451Z,20.51
2018-08-19T22:34:43.626Z,20.69
2018-08-19T23:07:33.760Z,20.82
2018-08-19T23:08:34.098Z,20.85
2018-08-19T23:09:33.570Z,20.81
2018-08-19T23:10:33.363Z,20.85
2018-08-19T23:11:33.213Z,20.83
2018-08-19T23:12:33.197Z,20.85
2018-08-19T23:13:33.322Z,20.81
2018-08-19T23:14:36.117Z,20.85
2018-08-19T23:15:39.460Z,20.85
2018-08-19T23:16:33.095Z,20.87
2018-08-19T23:17:34.036Z,20.94
2018-08-19T23:18:33.090Z,20.85
2018-08-19T23:19:33.086Z,20.76
2018-08-19T23:20:33.048Z,20.85
2018-08-19T23:21:33.074Z,20.88
2018-08-19T23:22:33.183Z,20.87
2018-08-19T23:27:43.851Z,20.85
2018-08-19T23:36:15.033Z,20.96
2018-08-19T23:37:15.013Z,20.94
2018-08-19T23:38:14.669Z,20.87
2018-08-19T23:52:36.719Z,20.94
2018-08-19T23:53:35.560Z,20.88
2018-08-19T23:54:35.644Z,20.91
